Time;durP1;ratioP1;P1;durP2;ratioP2;P2;SDS_P1;SDS_P2;PMS_P1;PMS_P2;Temp;Humidity;BMP_temperature;BMP_pressure;BME280_temperature;BME280_humidity;BME280_pressure;Samples;Min_cycle;Max_cycle;Signal;HPM_P1;HPM_P2
2023/03/04 00:01:58;;;;;;;26.35;4.90;;;;;;;5.14;100.00;102457.09;5015250;28;20061;-70
2023/03/04 00:04:24;;;;;;;20.15;4.05;;;;;;;5.10;100.00;102457.53;5014465;28;20488;-70
2023/03/04 00:06:49;;;;;;;23.50;4.63;;;;;;;5.12;100.00;102456.41;5013603;28;20399;-70
2023/03/04 00:09:15;;;;;;;21.25;4.55;;;;;;;5.09;100.00;102461.25;5014399;28;20037;-69
2023/03/04 00:11:40;;;;;;;20.77;4.68;;;;;;;5.10;100.00;102465.59;5014375;28;20021;-71
2023/03/04 00:14:05;;;;;;;28.80;4.57;;;;;;;5.08;100.00;102465.75;5014324;28;20036;-71
2023/03/04 00:16:31;;;;;;;20.10;4.13;;;;;;;5.05;100.00;102460.69;5012180;28;20036;-71
2023/03/04 00:18:56;;;;;;;19.58;4.38;;;;;;;5.04;100.00;102463.50;5030908;28;20487;-70
2023/03/04 00:21:23;;;;;;;20.80;4.40;;;;;;;5.04;100.00;102453.66;5014439;28;20025;-72
2023/03/04 00:23:48;;;;;;;20.23;3.92;;;;;;;5.03;100.00;102453.75;5032230;28;20033;-70
2023/03/04 00:26:14;;;;;;;24.17;4.28;;;;;;;5.07;100.00;102441.75;5012306;28;20045;-70
2023/03/04 00:28:40;;;;;;;24.85;4.75;;;;;;;5.10;100.00;102447.69;5011132;28;20037;-71
2023/03/04 00:31:06;;;;;;;24.67;4.70;;;;;;;5.11;100.00;102446.66;5014153;28;20042;-71
2023/03/04 00:33:32;;;;;;;23.20;4.25;;;;;;;5.10;100.00;102447.69;4998738;28;20088;-73
2023/03/04 00:35:58;;;;;;;23.77;4.78;;;;;;;5.15;100.00;102444.53;4998380;28;20496;-72
2023/03/04 00:38:24;;;;;;;24.00;4.82;;;;;;;5.11;100.00;102446.66;4998687;28;20032;-72
2023/03/04 00:40:49;;;;;;;29.92;5.07;;;;;;;5.14;100.00;102442.84;4998601;28;20457;-71
2023/03/04 00:43:14;;;;;;;27.15;4.57;;;;;;;5.13;100.00;102455.44;5011018;28;20062;-69
2023/03/04 00:45:40;;;;;;;23.98;3.95;;;;;;;5.15;100.00;102434.66;5035679;28;20083;-71
2023/03/04 00:48:05;;;;;;;22.48;4.32;;;;;;;5.15;100.00;102447.22;5035610;28;20132;-71
2023/03/04 00:50:31;;;;;;;23.88;4.32;;;;;;;5.17;100.00;102447.91;5030387;28;20038;-70
2023/03/04 00:52:56;;;;;;;24.55;4.07;;;;;;;5.16;100.00;102446.22;5013754;28;20535;-70
2023/03/04 00:55:23;;;;;;;21.65;4.05;;;;;;;5.14;100.00;102449.03;4999537;28;20038;-72
2023/03/04 00:57:49;;;;;;;19.77;3.85;;;;;;;5.13;100.00;102446.50;5015536;28;20030;-72
2023/03/04 01:00:14;;;;;;;20.58;4.13;;;;;;;5.12;100.00;102439.47;5017497;28;20106;-69
2023/03/04 01:02:40;;;;;;;20.45;4.50;;;;;;;5.13;100.00;102447.38;5014370;28;20046;-70
2023/03/04 01:05:06;;;;;;;25.02;4.43;;;;;;;5.12;100.00;102452.91;5034110;28;20029;-71
2023/03/04 01:07:32;;;;;;;19.45;4.13;;;;;;;5.11;100.00;102453.88;5017373;28;20026;-71
2023/03/04 01:09:57;;;;;;;21.20;4.13;;;;;;;5.11;100.00;102453.88;5004036;28;20049;-71
2023/03/04 01:12:22;;;;;;;23.27;4.85;;;;;;;5.10;100.00;102452.19;5015388;28;20042;-71
2023/03/04 01:14:48;;;;;;;23.85;5.05;;;;;;;5.11;100.00;102460.09;5032859;28;20040;-71
2023/03/04 01:17:13;;;;;;;26.95;5.40;;;;;;;5.11;100.00;102451.19;5033057;28;20032;-71
2023/03/04 01:19:39;;;;;;;32.03;5.05;;;;;;;5.15;100.00;102449.91;4997976;28;20061;-70
2023/03/04 01:22:04;;;;;;;26.58;5.30;;;;;;;5.17;100.00;102447.91;5015373;28;20037;-71
2023/03/04 01:24:39;;;;;;;20.35;4.30;;;;;;;5.20;100.00;102452.16;5013952;28;20492;-69
2023/03/04 01:27:04;;;;;;;21.35;3.92;;;;;;;5.17;100.00;102452.44;5013603;28;20053;-71
2023/03/04 01:29:29;;;;;;;21.50;3.67;;;;;;;5.20;100.00;102452.97;5001828;28;20374;-73
2023/03/04 01:31:55;;;;;;;21.98;4.20;;;;;;;5.17;100.00;102447.06;4997778;28;20061;-72
2023/03/04 01:34:20;;;;;;;27.75;4.60;;;;;;;5.15;100.00;102445.38;4996353;28;20036;-73
2023/03/04 01:36:45;;;;;;;26.45;4.30;;;;;;;5.15;100.00;102444.53;4997262;28;20033;-70
2023/03/04 01:39:11;;;;;;;26.30;4.30;;;;;;;5.17;100.00;102441.72;4997166;28;20089;-72
2023/03/04 01:41:36;;;;;;;24.10;3.90;;;;;;;5.13;100.00;102439.31;4996939;28;20046;-72
2023/03/04 01:44:02;;;;;;;21.15;4.32;;;;;;;5.10;100.00;102434.25;4997096;28;20072;-70
2023/03/04 01:46:28;;;;;;;27.58;4.45;;;;;;;5.11;100.00;102433.25;4998840;28;20544;-72
2023/03/04 01:48:54;;;;;;;18.63;3.78;;;;;;;5.13;100.00;102431.28;5014958;28;20061;-72
2023/03/04 01:51:20;;;;;;;24.27;4.20;;;;;;;5.09;100.00;102432.56;5013704;28;20076;-72
2023/03/04 01:53:49;;;;;;;27.58;4.03;;;;;;;5.10;100.00;102425.34;5030179;28;20034;-72
2023/03/04 01:56:27;;;;;;;20.52;4.45;;;;;;;5.09;100.00;102418.31;5014702;28;20076;-72
2023/03/04 01:59:14;;;;;;;18.15;3.85;;;;;;;5.13;100.00;102411.63;5015008;28;20048;-71
2023/03/04 02:01:42;;;;;;;22.92;3.78;;;;;;;5.12;100.00;102416.16;5006470;28;20111;-70
2023/03/04 02:04:08;;;;;;;22.40;3.70;;;;;;;5.10;100.00;102409.25;4997022;28;20223;-71
2023/03/04 02:06:37;;;;;;;19.60;3.50;;;;;;;5.07;100.00;102407.72;4996858;28;20116;-72
2023/03/04 02:09:03;;;;;;;21.55;3.42;;;;;;;5.10;100.00;102415.47;4996796;28;20378;-72
2023/03/04 02:11:29;;;;;;;22.40;3.83;;;;;;;5.07;100.00;102409.53;4996774;28;20041;-72
2023/03/04 02:13:54;;;;;;;19.92;4.07;;;;;;;5.06;100.00;102399.84;5012584;28;20050;-71
2023/03/04 02:16:20;;;;;;;22.55;3.47;;;;;;;5.02;100.00;102399.25;5013486;28;20480;-71
2023/03/04 02:18:46;;;;;;;14.02;3.33;;;;;;;4.99;100.00;102396.06;5034467;28;20029;-71
2023/03/04 02:21:18;;;;;;;21.05;3.50;;;;;;;5.01;100.00;102408.31;5016125;28;20040;-72
2023/03/04 02:24:07;;;;;;;19.08;3.58;;;;;;;4.98;100.00;102400.56;5032876;28;20031;-70
2023/03/04 02:26:36;;;;;;;20.27;3.70;;;;;;;4.99;100.00;102396.88;5016135;28;20128;-70
2023/03/04 02:29:02;;;;;;;18.85;2.92;;;;;;;4.98;100.00;102403.22;5033931;28;20029;-72
2023/03/04 02:31:43;;;;;;;18.23;2.78;;;;;;;4.97;100.00;102398.88;5031520;28;20037;-70
2023/03/04 02:34:28;;;;;;;19.88;3.30;;;;;;;4.99;100.00;102402.25;5014944;28;20432;-71
2023/03/04 02:36:55;;;;;;;13.68;3.05;;;;;;;5.01;100.00;102391.38;5016065;28;20029;-70
2023/03/04 02:39:24;;;;;;;20.50;3.25;;;;;;;4.99;100.00;102394.19;5033630;28;20033;-72
2023/03/04 02:41:52;;;;;;;17.05;3.05;;;;;;;4.99;100.00;102394.19;5016103;28;20021;-72
2023/03/04 02:44:23;;;;;;;15.77;3.03;;;;;;;4.99;100.00;102394.19;5033215;28;20034;-69
2023/03/04 02:46:50;;;;;;;18.33;3.10;;;;;;;4.99;100.00;102385.31;5030023;28;20065;-71
2023/03/04 02:49:16;;;;;;;20.20;3.25;;;;;;;5.00;100.00;102381.63;5029491;28;20037;-70
2023/03/04 02:51:42;;;;;;;17.63;3.63;;;;;;;5.01;100.00;102376.09;5015734;28;20464;-71
2023/03/04 02:54:18;;;;;;;17.27;2.83;;;;;;;5.05;100.00;102380.19;5014655;28;20033;-71
2023/03/04 02:56:49;;;;;;;17.17;3.00;;;;;;;5.01;100.00;102378.78;5015750;28;20025;-71
2023/03/04 02:59:15;;;;;;;16.77;3.10;;;;;;;5.05;100.00;102379.34;5015421;28;20087;-70
2023/03/04 03:01:41;;;;;;;20.23;3.13;;;;;;;5.04;100.00;102373.16;5012146;28;20488;-71
2023/03/04 03:04:07;;;;;;;15.88;3.08;;;;;;;5.02;100.00;102375.13;5013793;28;20485;-70
2023/03/04 03:06:32;;;;;;;15.60;2.80;;;;;;;5.03;100.00;102370.59;5033627;28;20354;-71
2023/03/04 03:08:57;;;;;;;19.42;3.28;;;;;;;4.97;100.00;102367.53;5013142;28;20029;-71
2023/03/04 03:11:23;;;;;;;14.32;3.33;;;;;;;5.00;100.00;102370.88;5033161;28;20038;-71
2023/03/04 03:13:50;;;;;;;15.23;3.30;;;;;;;5.00;100.00;102369.06;5032026;28;20036;-72
2023/03/04 03:16:16;;;;;;;17.38;3.10;;;;;;;4.98;100.00;102371.03;5031421;28;20129;-72
2023/03/04 03:18:41;;;;;;;17.67;3.00;;;;;;;5.03;100.00;102370.59;5021163;28;20120;-73
2023/03/04 03:21:09;;;;;;;17.45;3.53;;;;;;;5.00;100.00;102369.06;4995696;28;20033;-71
2023/03/04 03:23:34;;;;;;;15.32;2.78;;;;;;;5.00;100.00;102368.22;5009114;28;20056;-71
2023/03/04 03:26:00;;;;;;;20.80;3.75;;;;;;;4.97;100.00;102372.06;5032563;28;20426;-72
2023/03/04 03:28:26;;;;;;;13.13;3.05;;;;;;;5.02;100.00;102366.25;5015034;28;20385;-71
2023/03/04 03:30:51;;;;;;;19.75;3.20;;;;;;;4.97;100.00;102362.16;5032620;28;20037;-70
2023/03/04 03:33:17;;;;;;;15.63;3.05;;;;;;;5.00;100.00;102355.66;5013670;28;20032;-72
2023/03/04 03:35:42;;;;;;;17.02;3.85;;;;;;;4.97;100.00;102359.47;5014030;28;20052;-72
2023/03/04 03:38:07;;;;;;;17.83;3.40;;;;;;;4.99;100.00;102353.97;5032998;28;20034;-71
2023/03/04 03:40:33;;;;;;;19.23;3.05;;;;;;;4.94;100.00;102356.25;5032508;28;20029;-73
2023/03/04 03:42:58;;;;;;;14.82;3.15;;;;;;;4.95;100.00;102356.13;5029366;28;20109;-70
2023/03/04 03:45:23;;;;;;;15.43;3.05;;;;;;;4.93;100.00;102360.75;5014365;28;20039;-72
2023/03/04 03:47:49;;;;;;;16.75;2.80;;;;;;;4.96;100.00;102354.25;5014844;28;20064;-72
2023/03/04 03:50:14;;;;;;;11.68;2.72;;;;;;;4.97;100.00;102356.78;5007240;28;20030;-72
2023/03/04 03:52:42;;;;;;;17.65;3.47;;;;;;;4.97;100.00;102353.28;5011615;28;20034;-72
2023/03/04 03:55:08;;;;;;;17.40;3.08;;;;;;;5.00;100.00;102366.38;5012655;28;20034;-72
2023/03/04 03:57:34;;;;;;;18.65;3.25;;;;;;;5.00;100.00;102350.28;5011364;28;20026;-73
2023/03/04 04:00:00;;;;;;;20.38;3.30;;;;;;;5.01;100.00;102357.31;5027167;28;20399;-70
2023/03/04 04:02:25;;;;;;;15.25;3.10;;;;;;;5.03;100.00;102354.50;5010982;28;20049;-71
2023/03/04 04:04:50;;;;;;;14.32;2.92;;;;;;;4.99;100.00;102353.97;5004000;28;20037;-70
2023/03/04 04:07:18;;;;;;;16.02;3.67;;;;;;;4.99;100.00;102355.81;4991573;28;20081;-70
2023/03/04 04:09:44;;;;;;;18.92;3.47;;;;;;;4.96;100.00;102355.09;4992830;28;20097;-72
2023/03/04 04:12:13;;;;;;;18.75;3.22;;;;;;;4.96;100.00;102365.00;4991688;28;20034;-72
2023/03/04 04:14:40;;;;;;;18.75;3.70;;;;;;;4.93;100.00;102358.09;4991719;28;20045;-71
2023/03/04 04:17:12;;;;;;;11.50;2.60;;;;;;;4.92;100.00;102358.22;4995347;28;20430;-71
2023/03/04 04:19:39;;;;;;;18.77;3.10;;;;;;;4.93;100.00;102357.25;5030323;28;20049;-69
2023/03/04 04:22:06;;;;;;;15.30;2.95;;;;;;;4.91;100.00;102359.25;5012159;28;20034;-71
2023/03/04 04:24:31;;;;;;;16.52;2.80;;;;;;;4.92;100.00;102355.56;5014314;28;20037;-70
2023/03/04 04:26:57;;;;;;;14.50;2.70;;;;;;;4.90;100.00;102360.22;5032239;28;20121;-70
2023/03/04 04:29:22;;;;;;;17.40;2.78;;;;;;;4.86;100.00;102361.53;5031923;28;20025;-71
2023/03/04 04:31:48;;;;;;;16.73;3.30;;;;;;;4.88;100.00;102362.22;5014484;28;20034;-70
2023/03/04 04:34:13;;;;;;;16.80;2.97;;;;;;;4.85;100.00;102358.00;5014223;28;20026;-72
2023/03/04 04:36:39;;;;;;;16.50;3.80;;;;;;;4.89;100.00;102363.91;5003772;28;20650;-71
2023/03/04 04:39:04;;;;;;;15.88;2.88;;;;;;;4.88;100.00;102362.22;4997682;28;20025;-71
2023/03/04 04:41:35;;;;;;;14.85;2.85;;;;;;;4.90;100.00;102368.28;5013830;28;20029;-69
2023/03/04 04:44:01;;;;;;;17.63;3.17;;;;;;;4.91;100.00;102364.63;5031739;28;20075;-69
2023/03/04 04:46:26;;;;;;;17.17;3.20;;;;;;;4.87;100.00;102369.41;5014134;28;20404;-71
2023/03/04 04:48:51;;;;;;;20.08;3.15;;;;;;;4.86;100.00;102365.06;5031698;28;20461;-69
2023/03/04 04:51:17;;;;;;;13.45;2.53;;;;;;;4.87;100.00;102373.94;5030495;28;20056;-72
2023/03/04 04:53:43;;;;;;;17.98;2.70;;;;;;;4.84;100.00;102371.56;5010625;28;20033;-70
2023/03/04 04:56:18;;;;;;;16.05;3.25;;;;;;;4.91;100.00;102372.66;5014240;28;20038;-70
2023/03/04 04:58:44;;;;;;;13.27;3.00;;;;;;;4.91;100.00;102372.66;5014254;28;20040;-72
2023/03/04 05:01:10;;;;;;;19.92;3.10;;;;;;;4.88;100.00;102372.97;5026908;28;20034;-71
2023/03/04 05:03:36;;;;;;;21.00;3.15;;;;;;;4.86;100.00;102369.56;5030418;28;20049;-70
2023/03/04 05:06:03;;;;;;;19.27;3.03;;;;;;;4.88;100.00;102375.66;5031913;28;20115;-72
2023/03/04 05:08:29;;;;;;;19.42;2.83;;;;;;;4.89;100.00;102367.44;5009154;28;20105;-72
2023/03/04 05:10:54;;;;;;;19.08;3.00;;;;;;;4.91;100.00;102364.63;4994587;28;20128;-71
2023/03/04 05:13:20;;;;;;;15.50;3.10;;;;;;;4.92;100.00;102369.81;5016742;28;20072;-69
2023/03/04 05:15:45;;;;;;;20.27;3.13;;;;;;;4.88;100.00;102370.28;5014105;28;20488;-71
2023/03/04 05:18:11;;;;;;;12.45;2.85;;;;;;;4.86;100.00;102365.06;5016212;28;20034;-71
2023/03/04 05:20:36;;;;;;;15.82;3.00;;;;;;;4.87;100.00;102365.91;5017217;28;20120;-70
2023/03/04 05:23:02;;;;;;;16.02;2.67;;;;;;;4.91;100.00;102359.25;5014525;28;20461;-72
2023/03/04 05:25:28;;;;;;;18.55;3.15;;;;;;;4.89;100.00;102362.09;4997295;28;20513;-70
2023/03/04 05:27:53;;;;;;;15.30;2.88;;;;;;;4.88;100.00;102363.06;5015414;28;20037;-71
2023/03/04 05:30:19;;;;;;;15.63;2.88;;;;;;;4.88;100.00;102364.91;5011738;28;20148;-69
2023/03/04 05:32:44;;;;;;;16.95;3.20;;;;;;;4.87;100.00;102365.91;4998659;28;20113;-71
2023/03/04 05:35:09;;;;;;;18.67;3.08;;;;;;;4.86;100.00;102367.75;5015168;28;20042;-70
2023/03/04 05:37:35;;;;;;;12.30;2.80;;;;;;;4.85;100.00;102370.59;5014519;28;20474;-71
2023/03/04 05:40:00;;;;;;;20.35;3.05;;;;;;;4.81;100.00;102367.34;4995354;28;20374;-71
2023/03/04 05:42:25;;;;;;;13.30;2.53;;;;;;;4.84;100.00;102372.41;4994057;28;20493;-70
2023/03/04 05:44:51;;;;;;;13.23;2.63;;;;;;;4.85;100.00;102373.25;5015368;28;20034;-70
2023/03/04 05:47:16;;;;;;;20.50;3.22;;;;;;;4.87;100.00;102376.63;5034648;28;20454;-72
2023/03/04 05:49:45;;;;;;;18.45;3.53;;;;;;;4.88;100.00;102371.13;5017077;28;20026;-72
2023/03/04 05:52:10;;;;;;;14.55;2.90;;;;;;;4.91;100.00;102378.03;5017049;28;20380;-71
2023/03/04 05:54:36;;;;;;;18.88;3.30;;;;;;;4.93;100.00;102376.03;5032195;28;20033;-69
2023/03/04 05:57:01;;;;;;;15.10;2.47;;;;;;;4.93;100.00;102382.22;5014862;28;20032;-69
2023/03/04 05:59:27;;;;;;;15.23;3.13;;;;;;;4.93;100.00;102371.50;4996735;28;20025;-70
2023/03/04 06:01:55;;;;;;;15.48;2.70;;;;;;;4.94;100.00;102372.34;5021867;28;20088;-71
2023/03/04 06:04:20;;;;;;;13.35;2.47;;;;;;;4.93;100.00;102378.72;5032120;28;20404;-72
2023/03/04 06:06:46;;;;;;;13.93;2.75;;;;;;;4.90;100.00;102381.69;5033217;28;20029;-70
2023/03/04 06:09:12;;;;;;;13.90;3.35;;;;;;;4.89;100.00;102385.34;5016516;28;20457;-72
2023/03/04 06:11:39;;;;;;;12.02;2.72;;;;;;;4.90;100.00;102384.38;5029914;28;20069;-71
2023/03/04 06:14:04;;;;;;;10.82;2.50;;;;;;;4.89;100.00;102382.69;4996752;28;20034;-70
2023/03/04 06:16:30;;;;;;;11.38;2.50;;;;;;;4.89;100.00;102380.00;5028110;28;20465;-70
2023/03/04 06:18:58;;;;;;;11.98;2.92;;;;;;;4.89;100.00;102380.00;5016137;28;20029;-72
2023/03/04 06:21:26;;;;;;;13.80;2.92;;;;;;;4.86;100.00;102380.28;5016183;28;20453;-70
2023/03/04 06:23:51;;;;;;;10.07;2.20;;;;;;;4.85;100.00;102384.00;5033874;28;20065;-70
2023/03/04 06:26:17;;;;;;;12.07;2.45;;;;;;;4.86;100.00;102391.03;5008152;28;20400;-73
2023/03/04 06:28:43;;;;;;;14.23;2.17;;;;;;;4.86;100.00;102385.66;5013557;28;20037;-72
2023/03/04 06:31:09;;;;;;;14.90;2.67;;;;;;;4.89;100.00;102396.09;5013968;28;20040;-70
2023/03/04 06:33:35;;;;;;;16.52;3.20;;;;;;;4.84;100.00;102387.66;4996386;28;20038;-73
2023/03/04 06:36:00;;;;;;;14.32;2.90;;;;;;;4.86;100.00;102391.88;4996534;28;20034;-71
2023/03/04 06:38:26;;;;;;;12.20;2.72;;;;;;;4.86;100.00;102391.03;5013893;28;20026;-70
2023/03/04 06:40:54;;;;;;;16.25;3.53;;;;;;;4.83;100.00;102391.31;5001865;28;20536;-70
2023/03/04 06:43:20;;;;;;;12.77;2.45;;;;;;;4.83;100.00;102391.31;5012050;28;20485;-70
2023/03/04 06:45:46;;;;;;;15.05;3.15;;;;;;;4.81;100.00;102387.97;5016061;28;20036;-71
2023/03/04 06:48:11;;;;;;;14.82;2.83;;;;;;;4.79;100.00;102380.06;5032408;28;20492;-72
2023/03/04 06:50:38;;;;;;;16.25;2.88;;;;;;;4.79;100.00;102399.66;5015832;28;20037;-69
2023/03/04 06:53:06;;;;;;;14.05;2.50;;;;;;;4.82;100.00;102395.03;5029374;28;20481;-70
2023/03/04 06:55:32;;;;;;;11.77;2.70;;;;;;;4.78;100.00;102392.59;5033017;28;20091;-70
2023/03/04 06:57:57;;;;;;;9.85;2.47;;;;;;;4.81;100.00;102409.41;5033715;28;20029;-70
2023/03/04 07:00:23;;;;;;;13.15;2.60;;;;;;;4.81;100.00;102410.25;5014581;28;20049;-72
2023/03/04 07:02:48;;;;;;;15.15;3.13;;;;;;;4.82;100.00;102413.78;5031391;28;20064;-70
2023/03/04 07:05:14;;;;;;;14.43;2.53;;;;;;;4.85;100.00;102405.44;5016834;28;20044;-71
2023/03/04 07:07:40;;;;;;;19.98;3.30;;;;;;;4.86;100.00;102407.13;5011018;28;20075;-72
2023/03/04 07:10:05;;;;;;;9.43;2.50;;;;;;;4.89;100.00;102406.81;5015310;28;20033;-71
2023/03/04 07:12:31;;;;;;;14.88;2.88;;;;;;;4.91;100.00;102404.84;5014749;28;20037;-70
2023/03/04 07:14:57;;;;;;;10.85;2.63;;;;;;;4.96;100.00;102403.38;5011232;28;20076;-71
2023/03/04 07:17:22;;;;;;;13.35;3.05;;;;;;;4.99;100.00;102407.63;5028402;28;20041;-70
2023/03/04 07:19:50;;;;;;;13.77;3.17;;;;;;;4.97;100.00;102412.31;5013234;28;20038;-72
2023/03/04 07:22:16;;;;;;;11.73;2.60;;;;;;;5.00;100.00;102408.44;5013011;28;20033;-70
2023/03/04 07:24:44;;;;;;;15.30;3.22;;;;;;;5.00;100.00;102413.81;5015354;28;20416;-70
2023/03/04 07:27:12;;;;;;;15.40;3.17;;;;;;;4.97;100.00;102414.97;5012641;28;20075;-72
2023/03/04 07:29:37;;;;;;;14.18;2.90;;;;;;;4.98;100.00;102422.00;5014655;28;20037;-71
2023/03/04 07:32:06;;;;;;;11.30;2.65;;;;;;;4.97;100.00;102423.03;5015149;28;20055;-72
2023/03/04 07:34:32;;;;;;;13.73;2.97;;;;;;;4.97;100.00;102426.53;5014882;28;20040;-72
2023/03/04 07:36:57;;;;;;;12.63;2.92;;;;;;;4.97;100.00;102420.34;4998284;28;20112;-71
2023/03/04 07:39:23;;;;;;;15.00;2.70;;;;;;;5.00;100.00;102424.53;5018121;28;20124;-71
2023/03/04 07:41:51;;;;;;;16.60;3.08;;;;;;;4.97;100.00;102433.75;5030816;28;20053;-71
2023/03/04 07:44:16;;;;;;;17.35;3.70;;;;;;;4.99;100.00;102434.44;5014546;28;20037;-70
2023/03/04 07:46:42;;;;;;;14.90;3.40;;;;;;;4.98;100.00;102438.13;5014734;28;20033;-70
2023/03/04 07:49:07;;;;;;;11.07;2.83;;;;;;;5.00;100.00;102436.16;5013515;28;20022;-72
2023/03/04 07:51:33;;;;;;;11.55;3.15;;;;;;;4.97;100.00;102441.81;5030839;28;20029;-72
2023/03/04 07:54:00;;;;;;;11.07;3.05;;;;;;;4.94;100.00;102444.78;4997054;28;20034;-72
2023/03/04 07:56:28;;;;;;;14.13;3.50;;;;;;;4.90;100.00;102446.91;5012654;28;20045;-72
2023/03/04 07:58:56;;;;;;;13.98;3.22;;;;;;;4.88;100.00;102442.72;5011213;28;20026;-72
2023/03/04 08:01:30;;;;;;;18.00;3.10;;;;;;;4.86;100.00;102444.66;4994553;28;20061;-72
2023/03/04 08:03:56;;;;;;;15.50;3.80;;;;;;;4.86;100.00;102444.66;5013191;28;20096;-73
2023/03/04 08:06:25;;;;;;;10.80;2.60;;;;;;;4.83;100.00;102453.00;5006591;28;20017;-73
2023/03/04 08:08:57;;;;;;;12.30;3.40;;;;;;;4.82;100.00;102445.97;5022845;28;20113;-74
2023/03/04 08:11:24;;;;;;;19.65;2.90;;;;;;;4.88;100.00;102443.53;5012769;28;20034;-74
2023/03/04 08:13:52;;;;;;;15.32;3.20;;;;;;;5.01;100.00;102450.41;5013201;28;20129;-76
2023/03/04 08:16:19;;;;;;;15.57;3.40;;;;;;;4.93;100.00;102446.59;5014428;28;20045;-73
2023/03/04 08:18:47;;;;;;;10.95;2.95;;;;;;;4.90;100.00;102446.06;5031953;28;20049;-74
2023/03/04 08:21:20;;;;;;;14.30;2.75;;;;;;;4.84;100.00;102452.03;5017204;28;20056;-72
2023/03/04 08:23:46;;;;;;;13.80;3.10;;;;;;;4.76;100.00;102453.59;5012635;28;20037;-71
2023/03/04 08:26:48;;;;;;;13.20;3.28;;;;;;;4.73;100.00;102456.59;5012097;28;20082;-72
2023/03/04 08:29:16;;;;;;;14.90;2.85;;;;;;;4.79;100.00;102456.00;5022003;28;20045;-71
2023/03/04 08:31:45;;;;;;;14.20;3.50;;;;;;;4.87;100.00;102451.75;5001661;28;20038;-72
2023/03/04 08:34:11;;;;;;;15.07;3.72;;;;;;;4.93;100.00;102454.66;5012062;28;20030;-71
2023/03/04 08:36:37;;;;;;;15.45;3.00;;;;;;;4.90;100.00;102452.28;5012326;28;20026;-74
2023/03/04 08:39:03;;;;;;;14.98;3.22;;;;;;;4.87;100.00;102454.41;5019058;28;20448;-73
2023/03/04 08:41:29;;;;;;;12.57;3.22;;;;;;;4.93;100.00;102456.50;5013637;28;20029;-72
2023/03/04 08:43:54;;;;;;;18.23;3.40;;;;;;;4.92;100.00;102454.81;5012277;28;20033;-71
2023/03/04 08:46:19;;;;;;;11.70;3.67;;;;;;;5.03;100.00;102451.06;5005034;28;20046;-72
2023/03/04 08:48:48;;;;;;;12.05;3.47;;;;;;;5.07;100.00;102457.84;5007615;28;20034;-70
2023/03/04 08:51:14;;;;;;;13.65;3.75;;;;;;;5.10;100.00;102457.53;5021511;28;20037;-71
2023/03/04 08:53:40;;;;;;;13.98;3.10;;;;;;;5.07;100.00;102447.97;5035122;28;20061;-73
2023/03/04 08:56:07;;;;;;;12.88;2.95;;;;;;;5.17;100.00;102453.28;5035939;28;20421;-71
2023/03/04 08:58:32;;;;;;;15.90;3.45;;;;;;;5.22;100.00;102450.16;5025445;28;20034;-71
2023/03/04 09:00:59;;;;;;;10.55;3.00;;;;;;;5.29;100.00;102451.25;5023162;28;20128;-71
2023/03/04 09:03:28;;;;;;;15.10;4.10;;;;;;;5.30;100.00;102453.78;5035840;28;20036;-71
2023/03/04 09:05:54;;;;;;;11.65;3.65;;;;;;;5.36;100.00;102451.47;5035680;28;20048;-72
2023/03/04 09:08:19;;;;;;;10.15;3.00;;;;;;;5.46;100.00;102446.88;5034253;28;20052;-72
2023/03/04 09:10:45;;;;;;;12.60;4.20;;;;;;;5.57;100.00;102444.00;5034102;28;20025;-72
2023/03/04 09:13:13;;;;;;;12.90;3.08;;;;;;;5.62;100.00;102446.22;5015889;28;20045;-72
2023/03/04 09:15:44;;;;;;;12.07;3.05;;;;;;;5.70;100.00;102445.44;5024772;28;20120;-71
2023/03/04 09:18:09;;;;;;;17.90;3.30;;;;;;;5.71;100.00;102444.44;5015663;28;20508;-72
2023/03/04 09:20:35;;;;;;;11.27;2.70;;;;;;;5.73;100.00;102434.41;5034974;28;20030;-72
2023/03/04 09:23:00;;;;;;;12.30;2.85;;;;;;;5.75;100.00;102430.56;5017591;28;20037;-72
2023/03/04 09:25:26;;;;;;;9.85;2.80;;;;;;;5.80;100.00;102428.25;5015886;28;20032;-71
2023/03/04 09:27:52;;;;;;;6.90;2.20;;;;;;;5.83;100.00;102429.78;5034877;28;20029;-73
2023/03/04 09:30:18;;;;;;;10.40;2.47;;;;;;;5.91;100.00;102431.69;5016701;28;20037;-72
2023/03/04 09:32:43;;;;;;;8.55;2.42;;;;;;;5.94;100.00;102431.38;5014992;28;20373;-71
2023/03/04 09:35:09;;;;;;;10.75;2.30;;;;;;;5.95;100.00;102436.59;5017391;28;20450;-72
2023/03/04 09:37:35;;;;;;;14.15;2.70;;;;;;;5.96;100.00;102424.00;5017178;28;20424;-72
2023/03/04 09:40:01;;;;;;;11.30;2.63;;;;;;;5.97;100.00;102421.19;5017242;28;20032;-72
2023/03/04 09:42:41;;;;;;;8.07;2.85;;;;;;;6.11;100.00;102425.16;5017307;28;20030;-71
2023/03/04 09:45:11;;;;;;;6.22;2.17;;;;;;;6.12;100.00;102426.84;5032720;28;20036;-74
2023/03/04 09:47:39;;;;;;;14.90;2.30;;;;;;;6.18;100.00;102426.22;4996879;28;20034;-71
2023/03/04 09:50:10;;;;;;;8.45;2.20;;;;;;;6.21;100.00;102425.91;4997476;28;20088;-72
2023/03/04 09:53:06;;;;;;;11.15;2.08;;;;;;;6.31;100.00;102414.22;4999387;28;20029;-72
2023/03/04 09:55:41;;;;;;;7.80;2.03;;;;;;;6.33;100.00;102425.66;5003893;28;20028;-72
2023/03/04 09:58:24;;;;;;;6.70;1.88;;;;;;;6.29;100.00;102432.34;5028510;28;20030;-71
2023/03/04 10:01:00;;;;;;;5.10;1.45;;;;;;;6.20;100.00;102421.56;5014621;28;20658;-72
2023/03/04 10:03:48;;;;;;;5.97;1.77;;;;;;;6.20;100.00;102426.94;4993164;28;20569;-72
2023/03/04 10:06:19;;;;;;;8.60;1.80;;;;;;;6.23;100.00;102423.06;4995053;28;20026;-71
2023/03/04 10:09:01;;;;;;;9.07;1.80;;;;;;;6.25;100.00;102417.53;5018710;28;20505;-72
2023/03/04 10:11:47;;;;;;;6.57;1.90;;;;;;;6.34;100.00;102425.50;5034694;28;20528;-72
2023/03/04 10:14:21;;;;;;;8.75;2.22;;;;;;;6.43;100.00;102420.16;5019753;28;20072;-72
2023/03/04 10:16:59;;;;;;;10.23;2.75;;;;;;;6.40;100.00;102418.63;5017183;28;20046;-72
2023/03/04 10:19:35;;;;;;;6.57;2.45;;;;;;;6.41;100.00;102420.31;4993795;28;20022;-72
2023/03/04 10:22:17;;;;;;;9.27;2.35;;;;;;;6.52;100.00;102417.38;4995343;28;20089;-73
2023/03/04 10:24:45;;;;;;;7.30;2.38;;;;;;;6.55;100.00;102411.69;4994749;28;20466;-72
2023/03/04 10:27:16;;;;;;;8.27;2.20;;;;;;;6.61;100.00;102410.19;5015973;28;20041;-72
2023/03/04 10:29:41;;;;;;;9.10;2.30;;;;;;;6.66;100.00;102413.25;5032679;28;20457;-72
2023/03/04 10:32:12;;;;;;;9.70;2.00;;;;;;;6.79;100.00;102407.41;5033583;28;20034;-72
2023/03/04 10:34:37;;;;;;;4.82;1.92;;;;;;;6.87;100.00;102410.16;5029453;28;20057;-73
2023/03/04 10:37:06;;;;;;;8.20;2.85;;;;;;;6.85;100.00;102405.91;5032087;28;20068;-73
2023/03/04 10:39:35;;;;;;;6.65;2.95;;;;;;;6.88;100.00;102406.47;5016277;28;20464;-72
2023/03/04 10:42:06;;;;;;;5.50;1.90;;;;;;;6.87;100.00;102404.75;5033959;28;20038;-73
2023/03/04 10:44:33;;;;;;;5.53;1.80;;;;;;;6.87;100.00;102406.59;5030585;28;20033;-73
2023/03/04 10:47:00;;;;;;;8.80;2.30;;;;;;;6.82;100.00;102396.31;4998208;28;20401;-72
2023/03/04 10:49:27;;;;;;;6.55;1.70;;;;;;;6.76;100.00;102393.44;4994647;28;20040;-72
2023/03/04 10:52:20;;;;;;;7.43;1.92;;;;;;;6.83;100.00;102397.19;5013720;28;20030;-72
2023/03/04 10:54:54;;;;;;;6.78;1.92;;;;;;;6.70;100.00;102403.84;4994140;28;20030;-71
2023/03/04 10:57:32;;;;;;;7.10;2.63;;;;;;;6.68;100.00;102405.00;4976797;28;20030;-73
2023/03/04 11:00:19;;;;;;;5.80;2.00;;;;;;;6.63;100.00;102402.81;5015408;28;20242;-72
2023/03/04 11:02:45;;;;;;;8.95;2.50;;;;;;;6.65;100.00;102394.56;5029272;28;20053;-72
2023/03/04 11:05:14;;;;;;;6.78;2.47;;;;;;;6.66;100.00;102397.09;5033245;28;20064;-73
2023/03/04 11:07:42;;;;;;;7.03;1.90;;;;;;;6.68;100.00;102395.09;5032873;28;20028;-73
2023/03/04 11:10:16;;;;;;;10.27;2.50;;;;;;;6.74;100.00;102396.28;5033748;28;20034;-72
2023/03/04 11:12:54;;;;;;;20.85;9.60;;;;;;;6.68;100.00;102395.09;5029475;28;20559;-71
2023/03/04 11:15:26;;;;;;;12.98;5.78;;;;;;;6.67;100.00;102387.19;5029854;28;20033;-72
2023/03/04 11:18:08;;;;;;;8.07;2.78;;;;;;;6.67;100.00;102392.56;5015285;28;20025;-72
2023/03/04 11:20:38;;;;;;;9.70;3.38;;;;;;;6.62;100.00;102378.75;5033316;28;20057;-72
2023/03/04 11:23:17;;;;;;;7.05;3.40;;;;;;;6.57;100.00;102381.94;5033043;28;20029;-71